sensor_id;sensor_type;location;lat;lon;timestamp;P1;durP1;ratioP1;P2;durP2;ratioP2
18689;SDS011;9782;52.930;15.562;2023-02-03T07:17:53;18.57;;;10.87;;
18689;SDS011;9782;52.930;15.562;2023-02-03T07:20:20;22.30;;;13.07;;
18689;SDS011;9782;52.930;15.562;2023-02-03T07:22:52;13.97;;;9.33;;
18689;SDS011;9782;52.930;15.562;2023-02-03T07:25:19;13.00;;;7.17;;
18689;SDS011;9782;52.930;15.562;2023-02-03T07:27:46;13.43;;;7.70;;
18689;SDS011;9782;52.930;15.562;2023-02-03T07:30:13;8.73;;;6.00;;
18689;SDS011;9782;52.930;15.562;2023-02-03T07:32:40;12.13;;;7.23;;
18689;SDS011;9782;52.930;15.562;2023-02-03T07:35:12;18.83;;;11.30;;
18689;SDS011;9782;52.930;15.562;2023-02-03T07:37:40;15.07;;;11.13;;
18689;SDS011;9782;52.930;15.562;2023-02-03T07:40:07;21.50;;;13.93;;
18689;SDS011;9782;52.930;15.562;2023-02-03T07:42:34;137.77;;;72.40;;
18689;SDS011;9782;52.930;15.562;2023-02-03T07:45:03;136.17;;;65.40;;
18689;SDS011;9782;52.930;15.562;2023-02-03T07:47:30;70.10;;;32.33;;
18689;SDS011;9782;52.930;15.562;2023-02-03T07:49:57;70.27;;;38.33;;
18689;SDS011;9782;52.930;15.562;2023-02-03T07:52:25;33.03;;;24.13;;
18689;SDS011;9782;52.930;15.562;2023-02-03T07:54:52;15.77;;;10.70;;
18689;SDS011;9782;52.930;15.562;2023-02-03T07:57:19;14.77;;;10.30;;
18689;SDS011;9782;52.930;15.562;2023-02-03T07:59:46;23.63;;;11.60;;
18689;SDS011;9782;52.930;15.562;2023-02-03T08:02:12;21.53;;;10.83;;
18689;SDS011;9782;52.930;15.562;2023-02-03T08:04:39;28.40;;;12.43;;
18689;SDS011;9782;52.930;15.562;2023-02-03T08:07:06;57.73;;;26.97;;
18689;SDS011;9782;52.930;15.562;2023-02-03T08:09:34;124.13;;;42.77;;
18689;SDS011;9782;52.930;15.562;2023-02-03T08:12:01;46.00;;;18.77;;
18689;SDS011;9782;52.930;15.562;2023-02-03T08:14:28;38.37;;;16.93;;
18689;SDS011;9782;52.930;15.562;2023-02-03T08:16:55;79.43;;;36.17;;
18689;SDS011;9782;52.930;15.562;2023-02-03T08:19:22;44.77;;;18.20;;
18689;SDS011;9782;52.930;15.562;2023-02-03T08:21:49;71.87;;;20.50;;
18689;SDS011;9782;52.930;15.562;2023-02-03T08:24:16;72.80;;;21.87;;
18689;SDS011;9782;52.930;15.562;2023-02-03T08:26:44;54.27;;;17.23;;
18689;SDS011;9782;52.930;15.562;2023-02-03T08:29:11;44.57;;;18.03;;
18689;SDS011;9782;52.930;15.562;2023-02-03T08:31:39;60.10;;;23.07;;
18689;SDS011;9782;52.930;15.562;2023-02-03T08:34:06;54.43;;;17.90;;
18689;SDS011;9782;52.930;15.562;2023-02-03T08:36:33;47.63;;;13.20;;
18689;SDS011;9782;52.930;15.562;2023-02-03T08:39:03;43.70;;;13.80;;
18689;SDS011;9782;52.930;15.562;2023-02-03T08:41:30;39.70;;;11.67;;
18689;SDS011;9782;52.930;15.562;2023-02-03T08:43:58;41.77;;;12.23;;
18689;SDS011;9782;52.930;15.562;2023-02-03T08:46:26;33.73;;;12.03;;
18689;SDS011;9782;52.930;15.562;2023-02-03T08:48:53;19.43;;;9.27;;
18689;SDS011;9782;52.930;15.562;2023-02-03T08:51:21;22.80;;;12.57;;
18689;SDS011;9782;52.930;15.562;2023-02-03T08:53:48;20.83;;;11.57;;
18689;SDS011;9782;52.930;15.562;2023-02-03T08:56:15;21.33;;;11.83;;
18689;SDS011;9782;52.930;15.562;2023-02-03T08:58:42;18.23;;;10.27;;
18689;SDS011;9782;52.930;15.562;2023-02-03T09:01:11;20.87;;;10.90;;
18689;SDS011;9782;52.930;15.562;2023-02-03T09:03:39;34.83;;;15.97;;
18689;SDS011;9782;52.930;15.562;2023-02-03T09:06:07;21.83;;;11.90;;
18689;SDS011;9782;52.930;15.562;2023-02-03T09:08:35;19.10;;;10.80;;
18689;SDS011;9782;52.930;15.562;2023-02-03T09:11:06;26.83;;;14.23;;
18689;SDS011;9782;52.930;15.562;2023-02-03T09:13:34;19.20;;;9.53;;
18689;SDS011;9782;52.930;15.562;2023-02-03T09:16:00;16.63;;;9.07;;
18689;SDS011;9782;52.930;15.562;2023-02-03T09:18:29;17.03;;;9.40;;
18689;SDS011;9782;52.930;15.562;2023-02-03T09:20:59;24.57;;;12.27;;
18689;SDS011;9782;52.930;15.562;2023-02-03T09:23:26;26.50;;;12.23;;
18689;SDS011;9782;52.930;15.562;2023-02-03T09:25:54;20.87;;;11.87;;
18689;SDS011;9782;52.930;15.562;2023-02-03T09:28:21;19.07;;;9.53;;
18689;SDS011;9782;52.930;15.562;2023-02-03T09:30:48;62.47;;;21.73;;
18689;SDS011;9782;52.930;15.562;2023-02-03T09:33:15;96.80;;;27.33;;
18689;SDS011;9782;52.930;15.562;2023-02-03T09:35:43;201.93;;;40.03;;
18689;SDS011;9782;52.930;15.562;2023-02-03T09:38:17;54.97;;;18.13;;
18689;SDS011;9782;52.930;15.562;2023-02-03T09:40:44;100.77;;;31.20;;
18689;SDS011;9782;52.930;15.562;2023-02-03T09:43:20;58.43;;;22.53;;
18689;SDS011;9782;52.930;15.562;2023-02-03T09:45:59;51.60;;;24.90;;
18689;SDS011;9782;52.930;15.562;2023-02-03T09:48:29;44.40;;;20.07;;
18689;SDS011;9782;52.930;15.562;2023-02-03T09:51:01;24.37;;;12.90;;
18689;SDS011;9782;52.930;15.562;2023-02-03T09:53:29;32.43;;;18.83;;
18689;SDS011;9782;52.930;15.562;2023-02-03T09:56:02;19.13;;;13.43;;
18689;SDS011;9782;52.930;15.562;2023-02-03T09:58:31;15.40;;;10.13;;
18689;SDS011;9782;52.930;15.562;2023-02-03T10:00:59;13.63;;;8.53;;
18689;SDS011;9782;52.930;15.562;2023-02-03T10:03:31;15.03;;;9.83;;
18689;SDS011;9782;52.930;15.562;2023-02-03T10:06:18;13.03;;;9.10;;
18689;SDS011;9782;52.930;15.562;2023-02-03T10:09:04;13.20;;;7.90;;
18689;SDS011;9782;52.930;15.562;2023-02-03T10:11:42;11.07;;;7.97;;
18689;SDS011;9782;52.930;15.562;2023-02-03T10:14:24;17.70;;;10.80;;
18689;SDS011;9782;52.930;15.562;2023-02-03T10:17:06;12.67;;;9.43;;
18689;SDS011;9782;52.930;15.562;2023-02-03T10:19:45;10.40;;;6.87;;
18689;SDS011;9782;52.930;15.562;2023-02-03T10:22:19;10.73;;;6.90;;
18689;SDS011;9782;52.930;15.562;2023-02-03T10:24:52;10.93;;;6.30;;
18689;SDS011;9782;52.930;15.562;2023-02-03T10:27:25;16.80;;;9.07;;
18689;SDS011;9782;52.930;15.562;2023-02-03T10:29:56;9.50;;;6.37;;
18689;SDS011;9782;52.930;15.562;2023-02-03T10:32:28;9.00;;;5.90;;
18689;SDS011;9782;52.930;15.562;2023-02-03T10:34:56;7.70;;;5.67;;
18689;SDS011;9782;52.930;15.562;2023-02-03T10:37:26;8.00;;;5.20;;
18689;SDS011;9782;52.930;15.562;2023-02-03T10:39:56;6.00;;;4.60;;
18689;SDS011;9782;52.930;15.562;2023-02-03T10:42:25;5.83;;;4.27;;
18689;SDS011;9782;52.930;15.562;2023-02-03T10:45:14;7.33;;;3.87;;
18689;SDS011;9782;52.930;15.562;2023-02-03T10:47:42;6.40;;;4.20;;
18689;SDS011;9782;52.930;15.562;2023-02-03T10:50:14;12.37;;;7.93;;
18689;SDS011;9782;52.930;15.562;2023-02-03T10:52:44;6.47;;;4.30;;
18689;SDS011;9782;52.930;15.562;2023-02-03T10:57:57;9.40;;;5.93;;
18689;SDS011;9782;52.930;15.562;2023-02-03T11:00:32;8.80;;;5.30;;
18689;SDS011;9782;52.930;15.562;2023-02-03T11:03:02;4.23;;;2.33;;
18689;SDS011;9782;52.930;15.562;2023-02-03T11:05:33;6.23;;;4.03;;
18689;SDS011;9782;52.930;15.562;2023-02-03T11:08:01;5.27;;;3.40;;
18689;SDS011;9782;52.930;15.562;2023-02-03T11:10:30;3.83;;;2.60;;
18689;SDS011;9782;52.930;15.562;2023-02-03T11:13:09;4.20;;;2.50;;
18689;SDS011;9782;52.930;15.562;2023-02-03T11:15:42;2.87;;;1.80;;
18689;SDS011;9782;52.930;15.562;2023-02-03T11:18:24;3.57;;;1.60;;
18689;SDS011;9782;52.930;15.562;2023-02-03T11:24:13;2.57;;;1.50;;
18689;SDS011;9782;52.930;15.562;2023-02-03T11:26:46;2.90;;;1.67;;
18689;SDS011;9782;52.930;15.562;2023-02-03T11:29:16;5.57;;;3.03;;
18689;SDS011;9782;52.930;15.562;2023-02-03T11:31:46;4.03;;;2.40;;
18689;SDS011;9782;52.930;15.562;2023-02-03T11:34:15;4.27;;;2.83;;
18689;SDS011;9782;52.930;15.562;2023-02-03T11:36:44;5.20;;;2.40;;
18689;SDS011;9782;52.930;15.562;2023-02-03T11:39:20;2.90;;;1.57;;
18689;SDS011;9782;52.930;15.562;2023-02-03T11:41:51;3.37;;;2.00;;
18689;SDS011;9782;52.930;15.562;2023-02-03T11:44:19;4.37;;;2.30;;
18689;SDS011;9782;52.930;15.562;2023-02-03T11:46:49;5.17;;;2.50;;
18689;SDS011;9782;52.930;15.562;2023-02-03T11:49:40;4.77;;;2.23;;
18689;SDS011;9782;52.930;15.562;2023-02-03T11:52:28;4.10;;;1.50;;
18689;SDS011;9782;52.930;15.562;2023-02-03T11:55:06;7.10;;;1.80;;
18689;SDS011;9782;52.930;15.562;2023-02-03T11:57:49;6.13;;;2.20;;
18689;SDS011;9782;52.930;15.562;2023-02-03T12:00:24;8.90;;;3.67;;
18689;SDS011;9782;52.930;15.562;2023-02-03T12:05:57;8.60;;;2.17;;
18689;SDS011;9782;52.930;15.562;2023-02-03T12:08:34;6.67;;;2.03;;
18689;SDS011;9782;52.930;15.562;2023-02-03T12:11:13;7.57;;;2.37;;
18689;SDS011;9782;52.930;15.562;2023-02-03T12:13:58;6.30;;;3.47;;
18689;SDS011;9782;52.930;15.562;2023-02-03T12:16:45;10.40;;;3.60;;
18689;SDS011;9782;52.930;15.562;2023-02-03T12:19:36;9.13;;;2.43;;
18689;SDS011;9782;52.930;15.562;2023-02-03T12:22:18;16.13;;;3.03;;
18689;SDS011;9782;52.930;15.562;2023-02-03T12:24:54;20.37;;;3.00;;
18689;SDS011;9782;52.930;15.562;2023-02-03T12:27:37;20.57;;;4.63;;
18689;SDS011;9782;52.930;15.562;2023-02-03T12:30:11;18.00;;;3.63;;
18689;SDS011;9782;52.930;15.562;2023-02-03T12:32:44;16.70;;;3.83;;
18689;SDS011;9782;52.930;15.562;2023-02-03T12:35:16;13.90;;;3.87;;
18689;SDS011;9782;52.930;15.562;2023-02-03T12:37:48;16.77;;;3.37;;
18689;SDS011;9782;52.930;15.562;2023-02-03T12:40:21;17.90;;;3.73;;
18689;SDS011;9782;52.930;15.562;2023-02-03T12:42:56;13.20;;;3.90;;
18689;SDS011;9782;52.930;15.562;2023-02-03T12:45:29;20.60;;;3.83;;
18689;SDS011;9782;52.930;15.562;2023-02-03T12:47:59;20.17;;;4.83;;
18689;SDS011;9782;52.930;15.562;2023-02-03T12:50:33;26.20;;;6.77;;
18689;SDS011;9782;52.930;15.562;2023-02-03T12:53:05;17.63;;;5.60;;
18689;SDS011;9782;52.930;15.562;2023-02-03T12:55:40;18.10;;;4.37;;
18689;SDS011;9782;52.930;15.562;2023-02-03T12:58:27;26.43;;;4.70;;
18689;SDS011;9782;52.930;15.562;2023-02-03T13:00:59;12.40;;;3.43;;
18689;SDS011;9782;52.930;15.562;2023-02-03T13:03:34;18.60;;;4.57;;
18689;SDS011;9782;52.930;15.562;2023-02-03T13:06:13;25.23;;;5.60;;
18689;SDS011;9782;52.930;15.562;2023-02-03T13:11:32;26.43;;;4.27;;
18689;SDS011;9782;52.930;15.562;2023-02-03T13:14:35;19.73;;;4.10;;
18689;SDS011;9782;52.930;15.562;2023-02-03T13:17:12;15.37;;;4.67;;
18689;SDS011;9782;52.930;15.562;2023-02-03T13:19:44;22.63;;;4.40;;
18689;SDS011;9782;52.930;15.562;2023-02-03T13:43:11;13.60;;;3.60;;
18689;SDS011;9782;52.930;15.562;2023-02-03T13:46:22;14.00;;;3.43;;
18689;SDS011;9782;52.930;15.562;2023-02-03T13:48:52;15.63;;;4.03;;
18689;SDS011;9782;52.930;15.562;2023-02-03T13:51:21;15.60;;;3.60;;
18689;SDS011;9782;52.930;15.562;2023-02-03T13:53:57;12.03;;;3.70;;
18689;SDS011;9782;52.930;15.562;2023-02-03T13:56:29;12.93;;;3.90;;
18689;SDS011;9782;52.930;15.562;2023-02-03T14:01:35;18.00;;;3.67;;
18689;SDS011;9782;52.930;15.562;2023-02-03T14:14:01;19.17;;;5.67;;
18689;SDS011;9782;52.930;15.562;2023-02-03T14:23:38;22.83;;;7.27;;
18689;SDS011;9782;52.930;15.562;2023-02-03T14:26:13;32.37;;;9.30;;
18689;SDS011;9782;52.930;15.562;2023-02-03T14:28:45;42.03;;;13.50;;
18689;SDS011;9782;52.930;15.562;2023-02-03T14:31:17;54.63;;;18.43;;
18689;SDS011;9782;52.930;15.562;2023-02-03T14:34:01;82.47;;;23.93;;
18689;SDS011;9782;52.930;15.562;2023-02-03T14:36:40;44.83;;;13.43;;
18689;SDS011;9782;52.930;15.562;2023-02-03T14:39:29;75.77;;;25.03;;
18689;SDS011;9782;52.930;15.562;2023-02-03T14:42:22;48.43;;;16.60;;
18689;SDS011;9782;52.930;15.562;2023-02-03T14:45:15;62.10;;;21.10;;
18689;SDS011;9782;52.930;15.562;2023-02-03T14:48:03;57.97;;;20.33;;
18689;SDS011;9782;52.930;15.562;2023-02-03T14:50:44;66.80;;;20.67;;
18689;SDS011;9782;52.930;15.562;2023-02-03T14:53:25;43.73;;;15.17;;
18689;SDS011;9782;52.930;15.562;2023-02-03T14:56:11;51.90;;;16.83;;
18689;SDS011;9782;52.930;15.562;2023-02-03T14:58:47;29.90;;;10.83;;
18689;SDS011;9782;52.930;15.562;2023-02-03T15:01:26;29.60;;;9.13;;
18689;SDS011;9782;52.930;15.562;2023-02-03T15:04:21;28.43;;;7.57;;
18689;SDS011;9782;52.930;15.562;2023-02-03T15:06:50;16.60;;;5.00;;
18689;SDS011;9782;52.930;15.562;2023-02-03T15:09:19;23.07;;;7.30;;
18689;SDS011;9782;52.930;15.562;2023-02-03T15:11:51;20.37;;;5.40;;
18689;SDS011;9782;52.930;15.562;2023-02-03T15:14:19;16.87;;;3.93;;
18689;SDS011;9782;52.930;15.562;2023-02-03T15:16:50;20.10;;;4.47;;
18689;SDS011;9782;52.930;15.562;2023-02-03T15:19:23;14.27;;;4.03;;
18689;SDS011;9782;52.930;15.562;2023-02-03T15:21:51;17.60;;;4.17;;
18689;SDS011;9782;52.930;15.562;2023-02-03T15:24:19;14.30;;;3.03;;
18689;SDS011;9782;52.930;15.562;2023-02-03T15:26:50;9.43;;;2.57;;
18689;SDS011;9782;52.930;15.562;2023-02-03T15:29:20;13.07;;;2.97;;
18689;SDS011;9782;52.930;15.562;2023-02-03T15:31:50;10.73;;;2.80;;
18689;SDS011;9782;52.930;15.562;2023-02-03T15:34:24;12.77;;;3.07;;
18689;SDS011;9782;52.930;15.562;2023-02-03T15:36:55;12.20;;;2.40;;
18689;SDS011;9782;52.930;15.562;2023-02-03T15:39:30;21.20;;;4.20;;
18689;SDS011;9782;52.930;15.562;2023-02-03T15:42:02;13.77;;;4.47;;
18689;SDS011;9782;52.930;15.562;2023-02-03T15:44:34;18.97;;;4.80;;
18689;SDS011;9782;52.930;15.562;2023-02-03T15:47:14;22.03;;;6.27;;
18689;SDS011;9782;52.930;15.562;2023-02-03T15:49:48;11.87;;;5.13;;
18689;SDS011;9782;52.930;15.562;2023-02-03T15:52:18;15.00;;;4.77;;
18689;SDS011;9782;52.930;15.562;2023-02-03T15:54:49;12.77;;;4.33;;
18689;SDS011;9782;52.930;15.562;2023-02-03T15:57:19;28.57;;;7.97;;
18689;SDS011;9782;52.930;15.562;2023-02-03T15:59:50;18.47;;;5.27;;
18689;SDS011;9782;52.930;15.562;2023-02-03T16:02:19;16.53;;;5.83;;
18689;SDS011;9782;52.930;15.562;2023-02-03T16:04:53;18.53;;;6.73;;
18689;SDS011;9782;52.930;15.562;2023-02-03T16:07:21;17.27;;;5.90;;
18689;SDS011;9782;52.930;15.562;2023-02-03T16:09:51;23.10;;;9.23;;
18689;SDS011;9782;52.930;15.562;2023-02-03T16:12:21;17.87;;;6.23;;
18689;SDS011;9782;52.930;15.562;2023-02-03T16:14:49;15.17;;;4.00;;
18689;SDS011;9782;52.930;15.562;2023-02-03T16:17:25;18.77;;;3.43;;
18689;SDS011;9782;52.930;15.562;2023-02-03T18:37:30;22.60;;;3.20;;
18689;SDS011;9782;52.930;15.562;2023-02-03T18:40:10;21.20;;;3.50;;
18689;SDS011;9782;52.930;15.562;2023-02-03T18:48:46;12.83;;;3.00;;
18689;SDS011;9782;52.930;15.562;2023-02-03T18:51:20;17.30;;;3.90;;
18689;SDS011;9782;52.930;15.562;2023-02-03T18:54:05;18.03;;;3.43;;
18689;SDS011;9782;52.930;15.562;2023-02-03T18:56:32;17.80;;;3.47;;
18689;SDS011;9782;52.930;15.562;2023-02-03T18:59:02;15.73;;;3.20;;
18689;SDS011;9782;52.930;15.562;2023-02-03T19:01:30;8.90;;;2.93;;
18689;SDS011;9782;52.930;15.562;2023-02-03T19:03:59;5.63;;;2.33;;
18689;SDS011;9782;52.930;15.562;2023-02-03T19:06:27;5.27;;;2.20;;
18689;SDS011;9782;52.930;15.562;2023-02-03T19:08:55;9.53;;;2.03;;
18689;SDS011;9782;52.930;15.562;2023-02-03T19:11:22;8.13;;;2.30;;
18689;SDS011;9782;52.930;15.562;2023-02-03T19:13:49;7.10;;;1.90;;
18689;SDS011;9782;52.930;15.562;2023-02-03T19:16:16;9.87;;;2.30;;
18689;SDS011;9782;52.930;15.562;2023-02-03T19:18:44;5.37;;;1.80;;
18689;SDS011;9782;52.930;15.562;2023-02-03T19:21:13;9.80;;;2.93;;
18689;SDS011;9782;52.930;15.562;2023-02-03T19:23:40;5.40;;;2.17;;
18689;SDS011;9782;52.930;15.562;2023-02-03T19:26:07;9.07;;;2.63;;
18689;SDS011;9782;52.930;15.562;2023-02-03T19:28:36;8.37;;;2.53;;
18689;SDS011;9782;52.930;15.562;2023-02-03T19:31:03;6.30;;;2.17;;
18689;SDS011;9782;52.930;15.562;2023-02-03T19:33:31;5.87;;;1.80;;
18689;SDS011;9782;52.930;15.562;2023-02-03T19:35:58;5.47;;;1.93;;
18689;SDS011;9782;52.930;15.562;2023-02-03T19:38:27;5.07;;;1.43;;
18689;SDS011;9782;52.930;15.562;2023-02-03T19:51:16;6.77;;;1.60;;
18689;SDS011;9782;52.930;15.562;2023-02-03T19:54:14;2.67;;;1.40;;
18689;SDS011;9782;52.930;15.562;2023-02-03T19:56:42;4.00;;;2.00;;
18689;SDS011;9782;52.930;15.562;2023-02-03T19:59:09;4.63;;;1.77;;
18689;SDS011;9782;52.930;15.562;2023-02-03T20:01:36;4.73;;;1.37;;
18689;SDS011;9782;52.930;15.562;2023-02-03T20:04:03;1.73;;;1.47;;
18689;SDS011;9782;52.930;15.562;2023-02-03T20:06:35;3.90;;;1.30;;
18689;SDS011;9782;52.930;15.562;2023-02-03T20:09:02;2.57;;;1.30;;
18689;SDS011;9782;52.930;15.562;2023-02-03T20:11:31;2.70;;;1.37;;
18689;SDS011;9782;52.930;15.562;2023-02-03T20:13:58;4.80;;;1.50;;
18689;SDS011;9782;52.930;15.562;2023-02-03T20:16:26;4.00;;;1.53;;
18689;SDS011;9782;52.930;15.562;2023-02-03T20:19:17;2.00;;;1.50;;
18689;SDS011;9782;52.930;15.562;2023-02-03T20:21:45;3.73;;;1.40;;
18689;SDS011;9782;52.930;15.562;2023-02-03T20:24:14;4.23;;;0.87;;
18689;SDS011;9782;52.930;15.562;2023-02-03T20:27:00;1.63;;;1.10;;
18689;SDS011;9782;52.930;15.562;2023-02-03T20:29:27;2.60;;;1.23;;
18689;SDS011;9782;52.930;15.562;2023-02-03T20:31:54;2.83;;;1.33;;
18689;SDS011;9782;52.930;15.562;2023-02-03T20:34:22;4.17;;;2.23;;
18689;SDS011;9782;52.930;15.562;2023-02-03T20:36:54;6.50;;;3.27;;
18689;SDS011;9782;52.930;15.562;2023-02-03T20:39:23;5.27;;;3.17;;
18689;SDS011;9782;52.930;15.562;2023-02-03T20:41:52;10.53;;;4.63;;
18689;SDS011;9782;52.930;15.562;2023-02-03T20:44:22;10.27;;;5.60;;
18689;SDS011;9782;52.930;15.562;2023-02-03T20:46:49;9.57;;;4.97;;
18689;SDS011;9782;52.930;15.562;2023-02-03T20:49:20;7.13;;;4.27;;
18689;SDS011;9782;52.930;15.562;2023-02-03T20:51:47;6.43;;;4.27;;
18689;SDS011;9782;52.930;15.562;2023-02-03T20:54:21;6.73;;;4.60;;
18689;SDS011;9782;52.930;15.562;2023-02-03T20:56:50;10.60;;;4.90;;
18689;SDS011;9782;52.930;15.562;2023-02-03T20:59:23;8.73;;;4.17;;
18689;SDS011;9782;52.930;15.562;2023-02-03T21:01:53;5.23;;;3.60;;
18689;SDS011;9782;52.930;15.562;2023-02-03T21:04:20;5.33;;;2.80;;
18689;SDS011;9782;52.930;15.562;2023-02-03T21:07:16;5.40;;;2.90;;
18689;SDS011;9782;52.930;15.562;2023-02-03T21:09:55;4.67;;;2.90;;
18689;SDS011;9782;52.930;15.562;2023-02-03T21:12:23;6.83;;;3.40;;
18689;SDS011;9782;52.930;15.562;2023-02-03T21:14:54;6.03;;;2.63;;
18689;SDS011;9782;52.930;15.562;2023-02-03T21:17:23;4.63;;;2.77;;
18689;SDS011;9782;52.930;15.562;2023-02-03T21:19:52;5.63;;;2.70;;
